Thorndike, Massachusetts
Current Conditions -  °F | °C
As of 7:24 AM on Friday 28 Nov 2014 (Local Time) from KCEF Reporting Station
Light Fog Light Fog  
Wind Chill: 25°   Ceiling: 2800
Heat Index: 25°   Visibility: 7mi
Dew Point: 23°   Wind: 1mph
Humidity: 93%   Direction: 10°N
Pressure: 30.06"   Gusts: NA
Location:  42.19°N, 72.34°W
Report Text: KCEF 281224Z 01001KT 7SM R23/1000V4500FT MIFG BKN028 M04/M05 A3006 RMK AO2A
Loading
Personal Weather Stations






























Interactive Weather Map New forecast layout! Learn more

10-Day Weather Forecast

Advertisements
Track Severe Weather on mobile